Time;durP1;ratioP1;P1;durP2;ratioP2;P2;SDS_P1;SDS_P2;PMS_P1;PMS_P2;Temp;Humidity;BMP_temperature;BMP_pressure;BME280_temperature;BME280_humidity;BME280_pressure;Samples;Min_cycle;Max_cycle;Signal;HPM_P1;HPM_P2
2023/12/15 00:01:09;;;;;;;0.30;0.30;;;;;;;;;;6260442;28;20017;-80
2023/12/15 00:04:09;;;;;;;0.20;0.20;;;;;;;;;;6264724;28;20037;-80
2023/12/15 00:07:09;;;;;;;0.20;0.20;;;;;;;;;;6267120;28;20036;-80
2023/12/15 00:10:10;;;;;;;0.20;0.20;;;;;;;;;;6251567;28;20021;-80
2023/12/15 00:13:10;;;;;;;0.20;0.20;;;;;;;;;;6254460;28;20021;-80
2023/12/15 00:16:10;;;;;;;0.20;0.20;;;;;;;;;;6258595;28;20005;-80
2023/12/15 00:19:11;;;;;;;0.20;0.20;;;;;;;;;;6267553;28;20013;-80
2023/12/15 00:22:11;;;;;;;0.20;0.20;;;;;;;;;;6269329;28;20022;-77
2023/12/15 00:25:12;;;;;;;0.20;0.20;;;;;;;;;;6254644;28;20108;-77
2023/12/15 00:28:12;;;;;;;0.20;0.20;;;;;;;;;;6256085;28;20032;-77
2023/12/15 00:31:12;;;;;;;0.20;0.20;;;;;;;;;;6256321;28;20031;-77
2023/12/15 00:34:12;;;;;;;0.20;0.20;;;;;;;;;;6257278;28;20034;-77
2023/12/15 00:37:13;;;;;;;0.20;0.20;;;;;;;;;;6276806;28;20013;-77
2023/12/15 00:40:13;;;;;;;0.20;0.20;;;;;;;;;;6251470;28;20028;-77
2023/12/15 00:43:14;;;;;;;0.20;0.20;;;;;;;;;;6274482;28;20020;-77
2023/12/15 00:46:14;;;;;;;0.27;0.27;;;;;;;;;;6241048;28;20033;-77
2023/12/15 00:49:14;;;;;;;0.20;0.20;;;;;;;;;;6263451;28;20032;-77
2023/12/15 00:52:15;;;;;;;0.20;0.20;;;;;;;;;;6274631;28;20363;-77
2023/12/15 00:55:15;;;;;;;0.20;0.20;;;;;;;;;;6257575;28;20123;-77
2023/12/15 00:58:15;;;;;;;0.20;0.20;;;;;;;;;;6246958;28;20036;-77
2023/12/15 01:01:16;;;;;;;0.20;0.20;;;;;;;;;;6244660;28;20017;-77
2023/12/15 01:04:16;;;;;;;0.20;0.20;;;;;;;;;;6244826;28;20049;-77
2023/12/15 01:07:16;;;;;;;0.20;0.20;;;;;;;;;;6258857;28;20538;-77
2023/12/15 01:10:16;;;;;;;0.20;0.20;;;;;;;;;;6257538;28;20548;-77
2023/12/15 01:13:17;;;;;;;0.20;0.20;;;;;;;;;;6271936;28;20012;-77
2023/12/15 01:16:17;;;;;;;0.20;0.20;;;;;;;;;;6269429;28;20068;-77
2023/12/15 01:19:17;;;;;;;0.20;0.20;;;;;;;;;;6257063;28;20020;-77
2023/12/15 01:22:18;;;;;;;0.20;0.20;;;;;;;;;;6272511;28;20570;-77
2023/12/15 01:25:18;;;;;;;0.20;0.20;;;;;;;;;;6274345;28;20452;-77
2023/12/15 01:28:19;;;;;;;0.20;0.20;;;;;;;;;;6248277;28;20071;-77
2023/12/15 01:31:19;;;;;;;0.20;0.20;;;;;;;;;;6271259;28;20029;-77
2023/12/15 01:34:19;;;;;;;0.20;0.20;;;;;;;;;;6260819;28;20033;-77
2023/12/15 01:37:19;;;;;;;0.20;0.20;;;;;;;;;;6265745;28;20066;-77
2023/12/15 01:40:20;;;;;;;0.20;0.20;;;;;;;;;;6252778;28;20108;-77
2023/12/15 01:43:20;;;;;;;0.20;0.20;;;;;;;;;;6252953;28;20028;-77
2023/12/15 01:46:20;;;;;;;0.20;0.20;;;;;;;;;;6245662;28;20041;-77
2023/12/15 01:49:21;;;;;;;0.20;0.20;;;;;;;;;;6273240;28;20104;-77
2023/12/15 01:52:21;;;;;;;0.20;0.20;;;;;;;;;;6255295;28;20045;-77
2023/12/15 01:55:21;;;;;;;0.20;0.20;;;;;;;;;;6269775;28;20025;-77
2023/12/15 01:58:21;;;;;;;0.20;0.20;;;;;;;;;;6278356;28;20032;-77
2023/12/15 02:01:22;;;;;;;0.30;0.30;;;;;;;;;;6259626;28;20025;-77
2023/12/15 02:04:22;;;;;;;0.20;0.20;;;;;;;;;;6259633;28;20179;-78
2023/12/15 02:07:22;;;;;;;0.20;0.20;;;;;;;;;;6269620;28;20099;-78
2023/12/15 02:10:23;;;;;;;0.20;0.20;;;;;;;;;;6255256;28;20040;-78
2023/12/15 02:13:23;;;;;;;0.20;0.20;;;;;;;;;;6274827;28;20082;-78
2023/12/15 02:16:23;;;;;;;0.20;0.20;;;;;;;;;;6277746;28;20021;-78
2023/12/15 02:19:24;;;;;;;0.20;0.20;;;;;;;;;;6265413;28;20454;-77
2023/12/15 02:22:26;;;;;;;0.20;0.20;;;;;;;;;;6256579;28;20384;-81
2023/12/15 02:25:26;;;;;;;0.20;0.20;;;;;;;;;;6256424;28;20028;-81
2023/12/15 02:28:26;;;;;;;0.20;0.20;;;;;;;;;;6259934;28;20047;-82
2023/12/15 02:31:26;;;;;;;0.20;0.20;;;;;;;;;;6258950;28;20017;-82
2023/12/15 02:34:27;;;;;;;0.20;0.20;;;;;;;;;;6245679;28;20025;-82
2023/12/15 02:37:28;;;;;;;0.20;0.20;;;;;;;;;;6265488;28;20025;-82
2023/12/15 02:40:28;;;;;;;0.20;0.20;;;;;;;;;;6282365;28;20052;-81
2023/12/15 02:43:28;;;;;;;0.20;0.20;;;;;;;;;;6254446;28;20037;-83
2023/12/15 02:46:29;;;;;;;0.20;0.20;;;;;;;;;;6256139;28;20017;-82
2023/12/15 02:49:29;;;;;;;0.20;0.20;;;;;;;;;;6252773;28;20009;-82
2023/12/15 02:52:30;;;;;;;0.20;0.20;;;;;;;;;;6251508;28;20051;-78
2023/12/15 02:55:30;;;;;;;0.20;0.20;;;;;;;;;;6282394;28;20070;-78
2023/12/15 02:58:30;;;;;;;0.20;0.20;;;;;;;;;;6267501;28;20028;-78
2023/12/15 03:01:31;;;;;;;0.20;0.20;;;;;;;;;;6282193;28;20133;-78
2023/12/15 03:04:31;;;;;;;0.20;0.20;;;;;;;;;;6262328;28;20096;-78
2023/12/15 03:07:31;;;;;;;0.20;0.20;;;;;;;;;;6272729;28;20024;-78
2023/12/15 03:10:31;;;;;;;0.20;0.20;;;;;;;;;;6256097;28;20851;-78
2023/12/15 03:13:32;;;;;;;0.20;0.20;;;;;;;;;;6259399;28;20027;-78
2023/12/15 03:16:32;;;;;;;0.20;0.20;;;;;;;;;;6263965;28;20020;-78
2023/12/15 03:19:32;;;;;;;0.20;0.20;;;;;;;;;;6272850;28;20025;-78
2023/12/15 03:22:33;;;;;;;0.20;0.20;;;;;;;;;;6262462;28;20020;-77
2023/12/15 03:25:33;;;;;;;0.20;0.20;;;;;;;;;;6271052;28;20032;-78
2023/12/15 03:28:33;;;;;;;0.20;0.20;;;;;;;;;;6255749;28;20147;-78
2023/12/15 03:31:33;;;;;;;0.20;0.20;;;;;;;;;;6254754;28;20036;-78
2023/12/15 03:34:34;;;;;;;0.20;0.20;;;;;;;;;;6251306;28;20475;-78
2023/12/15 03:37:34;;;;;;;0.20;0.20;;;;;;;;;;6281175;28;20031;-78
2023/12/15 03:40:34;;;;;;;0.30;0.30;;;;;;;;;;6280242;28;20123;-77
2023/12/15 03:43:35;;;;;;;0.20;0.20;;;;;;;;;;6267254;28;20025;-78
2023/12/15 03:46:35;;;;;;;0.20;0.20;;;;;;;;;;6269530;28;20029;-78
2023/12/15 03:49:36;;;;;;;0.20;0.20;;;;;;;;;;6267314;28;20438;-77
2023/12/15 03:52:36;;;;;;;0.20;0.20;;;;;;;;;;6256224;28;20045;-78
2023/12/15 03:55:36;;;;;;;0.23;0.23;;;;;;;;;;6258008;28;20048;-78
2023/12/15 03:58:36;;;;;;;0.30;0.30;;;;;;;;;;6253438;28;20060;-78
2023/12/15 04:01:37;;;;;;;0.20;0.20;;;;;;;;;;6264673;28;20032;-80
2023/12/15 04:04:37;;;;;;;0.20;0.20;;;;;;;;;;6256545;28;20440;-82
2023/12/15 04:07:38;;;;;;;0.20;0.20;;;;;;;;;;6250384;28;20095;-82
2023/12/15 04:10:39;;;;;;;0.20;0.20;;;;;;;;;;6256261;28;20017;-82
2023/12/15 04:13:39;;;;;;;0.22;0.22;;;;;;;;;;6256476;28;20025;-83
2023/12/15 04:16:40;;;;;;;0.20;0.20;;;;;;;;;;6245284;28;20026;-83
2023/12/15 04:19:40;;;;;;;0.20;0.20;;;;;;;;;;6263553;28;20074;-83
2023/12/15 04:22:41;;;;;;;0.20;0.20;;;;;;;;;;6267606;28;20455;-84
2023/12/15 04:25:41;;;;;;;0.20;0.20;;;;;;;;;;6280874;28;20025;-84
2023/12/15 04:28:47;;;;;;;0.30;0.30;;;;;;;;;;6271836;28;20048;-84
2023/12/15 04:31:47;;;;;;;0.20;0.20;;;;;;;;;;6259784;28;20022;-85
2023/12/15 04:34:48;;;;;;;0.20;0.20;;;;;;;;;;6268135;28;20108;-86
2023/12/15 04:37:48;;;;;;;0.30;0.30;;;;;;;;;;6257951;28;20027;-86
2023/12/15 04:40:49;;;;;;;0.20;0.20;;;;;;;;;;6264229;28;20373;-86
2023/12/15 04:43:50;;;;;;;0.20;0.20;;;;;;;;;;6254821;28;20029;-78
2023/12/15 04:46:55;;;;;;;0.20;0.20;;;;;;;;;;6261955;28;20120;-78
2023/12/15 04:49:55;;;;;;;0.20;0.20;;;;;;;;;;6246906;28;20025;-78
2023/12/15 04:52:56;;;;;;;0.20;0.20;;;;;;;;;;6259456;28;20022;-78
2023/12/15 04:55:56;;;;;;;0.20;0.20;;;;;;;;;;6263118;28;20387;-78
2023/12/15 04:58:56;;;;;;;0.20;0.20;;;;;;;;;;6257330;28;20025;-79
2023/12/15 05:01:56;;;;;;;0.20;0.20;;;;;;;;;;6268595;28;20025;-79
2023/12/15 05:04:57;;;;;;;0.20;0.20;;;;;;;;;;6254556;28;20049;-79
2023/12/15 05:07:57;;;;;;;0.20;0.20;;;;;;;;;;6260648;28;20020;-79
2023/12/15 05:10:58;;;;;;;0.20;0.20;;;;;;;;;;6249415;28;20151;-79
2023/12/15 05:13:58;;;;;;;0.20;0.20;;;;;;;;;;6258579;28;20028;-79
2023/12/15 05:16:58;;;;;;;0.20;0.20;;;;;;;;;;6258443;28;20036;-79
2023/12/15 05:19:58;;;;;;;0.20;0.20;;;;;;;;;;6255440;28;20017;-80
2023/12/15 05:22:59;;;;;;;0.20;0.20;;;;;;;;;;6255468;28;20471;-87
2023/12/15 05:25:59;;;;;;;0.20;0.20;;;;;;;;;;6258975;28;20017;-89
2023/12/15 05:28:59;;;;;;;0.20;0.20;;;;;;;;;;6259314;28;20017;-88
2023/12/15 05:32:00;;;;;;;0.20;0.20;;;;;;;;;;6266788;28;20029;-88
2023/12/15 05:35:00;;;;;;;0.30;0.30;;;;;;;;;;6245099;28;20021;-88
2023/12/15 05:38:00;;;;;;;0.20;0.20;;;;;;;;;;6293256;28;20035;-88
2023/12/15 05:41:00;;;;;;;0.20;0.20;;;;;;;;;;6288131;28;20028;-88
2023/12/15 05:44:01;;;;;;;0.20;0.20;;;;;;;;;;6261223;28;20052;-88
2023/12/15 05:47:01;;;;;;;0.20;0.20;;;;;;;;;;6250278;28;20017;-88
2023/12/15 05:50:02;;;;;;;0.20;0.20;;;;;;;;;;6249954;28;20105;-88
2023/12/15 05:53:02;;;;;;;0.20;0.20;;;;;;;;;;6258819;28;20067;-80
2023/12/15 05:56:02;;;;;;;0.20;0.20;;;;;;;;;;6248916;28;20025;-80
2023/12/15 05:59:02;;;;;;;0.20;0.20;;;;;;;;;;6252390;28;20492;-80
2023/12/15 06:02:03;;;;;;;0.30;0.30;;;;;;;;;;6246640;28;20030;-80
2023/12/15 06:05:03;;;;;;;0.20;0.20;;;;;;;;;;6246662;28;20050;-81
2023/12/15 06:08:03;;;;;;;0.20;0.20;;;;;;;;;;6261521;28;20017;-81
2023/12/15 06:11:04;;;;;;;0.20;0.20;;;;;;;;;;6253557;28;20099;-81
2023/12/15 06:14:04;;;;;;;0.20;0.20;;;;;;;;;;6258368;28;20442;-81
2023/12/15 06:17:08;;;;;;;0.20;0.20;;;;;;;;;;6247217;28;20024;-80
2023/12/15 06:20:10;;;;;;;0.20;0.20;;;;;;;;;;6254281;28;20100;-80
2023/12/15 06:23:10;;;;;;;0.20;0.20;;;;;;;;;;6258622;28;20471;-80
2023/12/15 06:26:16;;;;;;;0.20;0.20;;;;;;;;;;6254797;28;20033;-81
2023/12/15 06:29:16;;;;;;;0.30;0.30;;;;;;;;;;6267494;28;20206;-81
2023/12/15 06:32:16;;;;;;;0.20;0.20;;;;;;;;;;6273266;28;20432;-81
2023/12/15 06:35:17;;;;;;;0.20;0.20;;;;;;;;;;6261340;28;20438;-81
2023/12/15 06:38:17;;;;;;;0.20;0.20;;;;;;;;;;6258105;28;20025;-81
2023/12/15 06:41:18;;;;;;;0.23;0.23;;;;;;;;;;6266286;28;20025;-81
2023/12/15 06:44:18;;;;;;;0.20;0.20;;;;;;;;;;6246546;28;20034;-80
2023/12/15 06:47:18;;;;;;;0.30;0.30;;;;;;;;;;6262019;28;20040;-80
2023/12/15 06:50:18;;;;;;;0.20;0.20;;;;;;;;;;6254066;28;20074;-81
2023/12/15 06:53:19;;;;;;;0.20;0.20;;;;;;;;;;6253103;28;20025;-80
2023/12/15 06:56:19;;;;;;;0.20;0.20;;;;;;;;;;6260530;28;20095;-80
2023/12/15 06:59:19;;;;;;;0.20;0.20;;;;;;;;;;6248870;28;20030;-80
2023/12/15 07:02:19;;;;;;;0.30;0.30;;;;;;;;;;6246433;28;20076;-84
2023/12/15 07:05:20;;;;;;;0.20;0.20;;;;;;;;;;6257908;28;20052;-83
2023/12/15 07:08:20;;;;;;;0.23;0.23;;;;;;;;;;6258607;28;20014;-83
2023/12/15 07:11:20;;;;;;;0.20;0.20;;;;;;;;;;6255061;28;20017;-83
2023/12/15 07:14:21;;;;;;;0.20;0.20;;;;;;;;;;6257790;28;20090;-83
2023/12/15 07:17:21;;;;;;;0.20;0.20;;;;;;;;;;6259233;28;20031;-84
2023/12/15 07:20:24;;;;;;;0.20;0.20;;;;;;;;;;6256999;28;20038;-84
2023/12/15 07:23:24;;;;;;;0.30;0.30;;;;;;;;;;6262749;28;20388;-81
2023/12/15 07:26:24;;;;;;;0.20;0.20;;;;;;;;;;6259433;28;20025;-81
2023/12/15 07:29:25;;;;;;;0.20;0.20;;;;;;;;;;6260102;28;20104;-81
2023/12/15 07:32:25;;;;;;;0.20;0.20;;;;;;;;;;6255917;28;20021;-81
2023/12/15 07:35:25;;;;;;;0.30;0.30;;;;;;;;;;6252368;28;20032;-81
2023/12/15 07:38:25;;;;;;;0.20;0.20;;;;;;;;;;6256819;28;20017;-81
2023/12/15 07:41:25;;;;;;;0.20;0.20;;;;;;;;;;6251355;28;20467;-81
2023/12/15 07:44:26;;;;;;;0.20;0.20;;;;;;;;;;6251249;28;20029;-81
2023/12/15 07:47:26;;;;;;;0.20;0.20;;;;;;;;;;6267663;28;20031;-80
2023/12/15 07:50:27;;;;;;;0.30;0.30;;;;;;;;;;6248919;28;20022;-81
2023/12/15 07:53:27;;;;;;;0.20;0.20;;;;;;;;;;6248765;28;20037;-81
2023/12/15 07:56:28;;;;;;;0.20;0.20;;;;;;;;;;6252144;28;20099;-80
2023/12/15 07:59:28;;;;;;;0.20;0.20;;;;;;;;;;6249911;28;20066;-80
2023/12/15 08:02:28;;;;;;;0.20;0.20;;;;;;;;;;6261894;28;20024;-81
2023/12/15 08:05:28;;;;;;;0.30;0.30;;;;;;;;;;6253891;28;20048;-81
2023/12/15 08:08:29;;;;;;;0.20;0.20;;;;;;;;;;6244902;28;20024;-81
2023/12/15 08:11:29;;;;;;;0.20;0.20;;;;;;;;;;6247590;28;20021;-81
2023/12/15 08:14:29;;;;;;;0.20;0.20;;;;;;;;;;6260062;28;20099;-81
2023/12/15 08:17:30;;;;;;;0.20;0.20;;;;;;;;;;6261051;28;20061;-81
2023/12/15 08:20:30;;;;;;;0.20;0.20;;;;;;;;;;6248310;28;20053;-81
2023/12/15 08:23:30;;;;;;;0.30;0.30;;;;;;;;;;6262109;28;20044;-80
2023/12/15 08:26:30;;;;;;;0.20;0.20;;;;;;;;;;6263444;28;20048;-81
2023/12/15 08:29:31;;;;;;;0.23;0.23;;;;;;;;;;6255957;28;20442;-81
2023/12/15 08:32:31;;;;;;;0.30;0.30;;;;;;;;;;6257111;28;20052;-85
2023/12/15 08:35:31;;;;;;;0.30;0.30;;;;;;;;;;6255892;28;20029;-86
2023/12/15 08:38:32;;;;;;;0.20;0.20;;;;;;;;;;6250235;28;20443;-86
2023/12/15 08:41:32;;;;;;;0.20;0.20;;;;;;;;;;6252015;28;20459;-86
2023/12/15 08:44:32;;;;;;;0.20;0.20;;;;;;;;;;6258259;28;20442;-87
2023/12/15 08:47:33;;;;;;;0.20;0.20;;;;;;;;;;6245226;28;20022;-87
2023/12/15 08:50:33;;;;;;;0.20;0.20;;;;;;;;;;6256585;28;20017;-87
2023/12/15 08:53:33;;;;;;;0.20;0.20;;;;;;;;;;6275521;28;20048;-87
2023/12/15 08:56:33;;;;;;;0.20;0.20;;;;;;;;;;6268911;28;20053;-87
2023/12/15 08:59:34;;;;;;;0.20;0.20;;;;;;;;;;6249616;28;20448;-87
2023/12/15 09:02:34;;;;;;;0.20;0.20;;;;;;;;;;6264483;28;20526;-88
2023/12/15 09:05:34;;;;;;;0.20;0.20;;;;;;;;;;6268755;28;20045;-87
2023/12/15 09:08:34;;;;;;;0.30;0.30;;;;;;;;;;6265557;28;20379;-88
2023/12/15 09:11:35;;;;;;;0.20;0.20;;;;;;;;;;6253717;28;20017;-87
2023/12/15 09:14:35;;;;;;;0.20;0.20;;;;;;;;;;6265556;28;20033;-88
2023/12/15 09:17:35;;;;;;;0.30;0.30;;;;;;;;;;6264452;28;20476;-87
2023/12/15 09:20:36;;;;;;;0.20;0.20;;;;;;;;;;6267600;28;20013;-88
2023/12/15 09:23:36;;;;;;;0.20;0.20;;;;;;;;;;6263897;28;20476;-88
2023/12/15 09:26:38;;;;;;;0.20;0.20;;;;;;;;;;6276642;28;20554;-88
2023/12/15 09:29:38;;;;;;;0.20;0.20;;;;;;;;;;6268640;28;20147;-88
2023/12/15 09:32:39;;;;;;;0.20;0.20;;;;;;;;;;6267919;28;20029;-88
2023/12/15 09:35:40;;;;;;;0.20;0.20;;;;;;;;;;6262135;28;20433;-87
2023/12/15 09:38:40;;;;;;;0.20;0.20;;;;;;;;;;6259158;28;20024;-87
2023/12/15 09:41:40;;;;;;;0.20;0.20;;;;;;;;;;6255179;28;20159;-82
2023/12/15 09:44:40;;;;;;;0.20;0.20;;;;;;;;;;6264518;28;20151;-87
2023/12/15 09:47:44;;;;;;;0.20;0.20;;;;;;;;;;6267933;28;20025;-87
2023/12/15 09:50:53;;;;;;;0.20;0.20;;;;;;;;;;6257128;28;20070;-87
2023/12/15 09:53:53;;;;;;;0.20;0.20;;;;;;;;;;6256501;28;20129;-86
2023/12/15 09:56:54;;;;;;;0.20;0.20;;;;;;;;;;6241446;28;20411;-86
2023/12/15 09:59:55;;;;;;;0.20;0.20;;;;;;;;;;6255725;28;20108;-86
2023/12/15 10:02:57;;;;;;;0.20;0.20;;;;;;;;;;6263225;28;20021;-84
2023/12/15 10:05:57;;;;;;;0.20;0.20;;;;;;;;;;6252370;28;20081;-84
2023/12/15 10:08:59;;;;;;;0.20;0.20;;;;;;;;;;6248833;28;20035;-84
2023/12/15 10:11:59;;;;;;;0.20;0.20;;;;;;;;;;6250739;28;20053;-79
2023/12/15 10:14:59;;;;;;;0.20;0.20;;;;;;;;;;6244388;28;20106;-79
2023/12/15 10:17:59;;;;;;;0.20;0.20;;;;;;;;;;6270939;28;20372;-79
2023/12/15 10:21:00;;;;;;;0.20;0.20;;;;;;;;;;6266709;28;20525;-78
2023/12/15 10:24:19;;;;;;;0.20;0.20;;;;;;;;;;6268781;28;20025;-78
2023/12/15 10:27:19;;;;;;;0.20;0.20;;;;;;;;;;6253882;28;20506;-78
2023/12/15 10:30:19;;;;;;;0.20;0.20;;;;;;;;;;6254338;28;20012;-78
2023/12/15 10:33:21;;;;;;;0.20;0.20;;;;;;;;;;6265283;28;20037;-79
2023/12/15 10:36:21;;;;;;;0.20;0.20;;;;;;;;;;6269541;28;20017;-79
2023/12/15 10:39:22;;;;;;;0.20;0.20;;;;;;;;;;6246778;28;20100;-78
2023/12/15 10:42:23;;;;;;;0.20;0.20;;;;;;;;;;6254866;28;20028;-79
2023/12/15 10:45:24;;;;;;;0.20;0.20;;;;;;;;;;6259963;28;20561;-79
2023/12/15 10:48:25;;;;;;;0.20;0.20;;;;;;;;;;6256852;28;20018;-80
2023/12/15 10:51:25;;;;;;;0.20;0.20;;;;;;;;;;6246778;28;20103;-79
2023/12/15 10:54:27;;;;;;;0.20;0.20;;;;;;;;;;6246207;28;20032;-79
2023/12/15 10:57:27;;;;;;;0.20;0.20;;;;;;;;;;6257645;28;20056;-78
2023/12/15 11:00:29;;;;;;;0.20;0.20;;;;;;;;;;6251855;28;20073;-78
2023/12/15 11:03:29;;;;;;;0.20;0.20;;;;;;;;;;6249769;28;20071;-78
2023/12/15 11:06:30;;;;;;;0.20;0.20;;;;;;;;;;6245489;28;20021;-78
2023/12/15 11:09:32;;;;;;;0.20;0.20;;;;;;;;;;6250354;28;20018;-78
2023/12/15 11:12:33;;;;;;;0.20;0.20;;;;;;;;;;6258548;28;20021;-78
2023/12/15 11:15:35;;;;;;;0.20;0.20;;;;;;;;;;6254375;28;20105;-78
2023/12/15 11:18:38;;;;;;;0.20;0.20;;;;;;;;;;6244711;28;20021;-78
2023/12/15 11:21:39;;;;;;;0.20;0.20;;;;;;;;;;6261037;28;20031;-84
2023/12/15 11:24:39;;;;;;;0.20;0.20;;;;;;;;;;6252901;28;20435;-79
2023/12/15 11:27:59;;;;;;;0.20;0.20;;;;;;;;;;6257881;28;20774;-79
2023/12/15 11:30:59;;;;;;;0.20;0.20;;;;;;;;;;6265787;28;20058;-78
2023/12/15 11:34:01;;;;;;;0.20;0.20;;;;;;;;;;6257645;28;20471;-79
2023/12/15 11:37:02;;;;;;;0.20;0.20;;;;;;;;;;6256917;28;20446;-79
2023/12/15 11:40:02;;;;;;;0.20;0.20;;;;;;;;;;6243514;28;20017;-79
2023/12/15 11:43:04;;;;;;;0.20;0.20;;;;;;;;;;6259285;28;20005;-79
2023/12/15 11:46:04;;;;;;;;;;;;;;;;;;6257586;28;20029;-79
2023/12/15 11:49:04;;;;;;;0.20;0.20;;;;;;;;;;6256230;28;19913;-79
2023/12/15 11:52:08;;;;;;;0.20;0.20;;;;;;;;;;6253775;28;20067;-79
2023/12/15 11:55:09;;;;;;;0.20;0.20;;;;;;;;;;6248667;28;20059;-79
2023/12/15 11:58:09;;;;;;;0.20;0.20;;;;;;;;;;6255953;28;20024;-79
2023/12/15 12:01:09;;;;;;;0.20;0.20;;;;;;;;;;6250453;28;20545;-79
2023/12/15 12:04:16;;;;;;;0.20;0.20;;;;;;;;;;6242911;28;20527;-85
2023/12/15 12:07:17;;;;;;;0.20;0.20;;;;;;;;;;6255449;28;20108;-84
2023/12/15 12:10:17;;;;;;;0.20;0.20;;;;;;;;;;6253547;28;20021;-84
2023/12/15 12:13:17;;;;;;;0.20;0.20;;;;;;;;;;6249213;28;20009;-79
2023/12/15 12:16:18;;;;;;;0.20;0.20;;;;;;;;;;6265697;28;20492;-79
2023/12/15 12:19:21;;;;;;;0.20;0.20;;;;;;;;;;6254121;28;20026;-79
2023/12/15 12:22:22;;;;;;;0.20;0.20;;;;;;;;;;6254655;28;20270;-84
2023/12/15 12:25:23;;;;;;;0.20;0.20;;;;;;;;;;6244641;28;20026;-84
2023/12/15 12:28:24;;;;;;;0.20;0.20;;;;;;;;;;6243656;28;20279;-84
2023/12/15 12:31:25;;;;;;;0.20;0.20;;;;;;;;;;6253571;28;20025;-84
2023/12/15 12:34:25;;;;;;;0.20;0.20;;;;;;;;;;6250674;28;20048;-84
2023/12/15 12:37:25;;;;;;;0.20;0.20;;;;;;;;;;6251005;28;20049;-84
2023/12/15 12:40:26;;;;;;;0.20;0.20;;;;;;;;;;6259617;28;20017;-84
2023/12/15 12:43:26;;;;;;;0.20;0.20;;;;;;;;;;6255192;28;20013;-83
2023/12/15 12:46:26;;;;;;;0.20;0.20;;;;;;;;;;6240577;28;20025;-84
2023/12/15 12:49:27;;;;;;;0.20;0.20;;;;;;;;;;6251253;28;20012;-84
2023/12/15 12:52:27;;;;;;;0.20;0.20;;;;;;;;;;6262769;28;20036;-84
2023/12/15 12:55:28;;;;;;;0.20;0.20;;;;;;;;;;6259320;28;20037;-84
2023/12/15 12:58:28;;;;;;;0.20;0.20;;;;;;;;;;6245975;28;20017;-83
2023/12/15 13:01:28;;;;;;;0.20;0.20;;;;;;;;;;6247240;28;20014;-84
2023/12/15 13:04:29;;;;;;;0.20;0.20;;;;;;;;;;6258285;28;20083;-83
2023/12/15 13:07:29;;;;;;;0.20;0.20;;;;;;;;;;6244880;28;20486;-83
2023/12/15 13:10:29;;;;;;;0.20;0.20;;;;;;;;;;6253246;28;20052;-83
2023/12/15 13:13:29;;;;;;;0.20;0.20;;;;;;;;;;6259923;28;20023;-84
2023/12/15 13:16:30;;;;;;;0.20;0.20;;;;;;;;;;6258447;28;20017;-84
2023/12/15 13:19:30;;;;;;;0.20;0.20;;;;;;;;;;6270659;28;20067;-83
2023/12/15 13:22:30;;;;;;;0.20;0.20;;;;;;;;;;6259164;28;20037;-83
2023/12/15 13:25:31;;;;;;;0.20;0.20;;;;;;;;;;6245772;28;20091;-84
2023/12/15 13:28:35;;;;;;;0.20;0.20;;;;;;;;;;6264392;28;20021;-84
2023/12/15 13:31:35;;;;;;;0.20;0.20;;;;;;;;;;6251080;28;20018;-83
2023/12/15 13:34:35;;;;;;;0.20;0.20;;;;;;;;;;6247055;28;20385;-78
2023/12/15 13:37:36;;;;;;;0.20;0.20;;;;;;;;;;6252737;28;20078;-79
2023/12/15 13:40:36;;;;;;;0.20;0.20;;;;;;;;;;6249287;28;20013;-78
2023/12/15 13:43:39;;;;;;;0.20;0.20;;;;;;;;;;6259719;28;20054;-79
2023/12/15 13:46:39;;;;;;;0.20;0.20;;;;;;;;;;6248487;28;20121;-78
2023/12/15 13:49:39;;;;;;;0.20;0.20;;;;;;;;;;6247828;28;20033;-78
2023/12/15 13:52:41;;;;;;;0.20;0.20;;;;;;;;;;6252302;28;20580;-78
2023/12/15 13:55:41;;;;;;;0.20;0.20;;;;;;;;;;6259638;28;20597;-78
2023/12/15 13:58:41;;;;;;;0.20;0.20;;;;;;;;;;6257573;28;20017;-78
2023/12/15 14:01:42;;;;;;;0.20;0.20;;;;;;;;;;6253261;28;20021;-78
2023/12/15 14:04:42;;;;;;;0.30;0.30;;;;;;;;;;6254373;28;20042;-78
2023/12/15 14:07:42;;;;;;;0.20;0.20;;;;;;;;;;6259892;28;20017;-78
2023/12/15 14:10:42;;;;;;;0.20;0.20;;;;;;;;;;6249803;28;20079;-78
2023/12/15 14:13:42;;;;;;;0.20;0.20;;;;;;;;;;6247179;28;20502;-78
2023/12/15 14:16:43;;;;;;;0.20;0.20;;;;;;;;;;6249641;28;20435;-78
2023/12/15 14:19:44;;;;;;;0.20;0.20;;;;;;;;;;6254011;28;20025;-78
2023/12/15 14:22:44;;;;;;;0.20;0.20;;;;;;;;;;6252508;28;20029;-78
2023/12/15 14:25:44;;;;;;;0.20;0.20;;;;;;;;;;6250287;28;20079;-78
2023/12/15 14:28:44;;;;;;;0.20;0.20;;;;;;;;;;6251084;28;20022;-78
2023/12/15 14:31:45;;;;;;;0.20;0.20;;;;;;;;;;6244294;28;20084;-78
2023/12/15 14:34:48;;;;;;;0.20;0.20;;;;;;;;;;6257533;28;20037;-78
2023/12/15 14:37:49;;;;;;;0.20;0.20;;;;;;;;;;6248814;28;20112;-78
2023/12/15 14:40:50;;;;;;;0.20;0.20;;;;;;;;;;6247461;28;20021;-78
2023/12/15 14:43:50;;;;;;;0.20;0.20;;;;;;;;;;6251658;28;20534;-78
2023/12/15 14:46:51;;;;;;;0.20;0.20;;;;;;;;;;6246032;28;20231;-78
2023/12/15 14:49:51;;;;;;;0.20;0.20;;;;;;;;;;6257666;28;20483;-78
2023/12/15 14:52:52;;;;;;;0.20;0.20;;;;;;;;;;6264084;28;20028;-78
2023/12/15 14:55:52;;;;;;;0.20;0.20;;;;;;;;;;6253026;28;20025;-78
2023/12/15 14:58:52;;;;;;;0.20;0.20;;;;;;;;;;6254143;28;20379;-78
2023/12/15 15:01:57;;;;;;;0.20;0.20;;;;;;;;;;6256020;28;20021;-79
2023/12/15 15:04:57;;;;;;;0.20;0.20;;;;;;;;;;6263891;28;20029;-78
2023/12/15 15:07:58;;;;;;;0.20;0.20;;;;;;;;;;6259550;28;20009;-78
2023/12/15 15:10:58;;;;;;;0.20;0.20;;;;;;;;;;6265265;28;20054;-78
2023/12/15 15:13:58;;;;;;;0.20;0.20;;;;;;;;;;6243800;28;20021;-78
2023/12/15 15:16:59;;;;;;;0.20;0.20;;;;;;;;;;6248304;28;20033;-77
2023/12/15 15:19:59;;;;;;;0.20;0.20;;;;;;;;;;6248650;28;20024;-77
2023/12/15 15:22:59;;;;;;;0.20;0.20;;;;;;;;;;6254641;28;20020;-77
2023/12/15 15:26:00;;;;;;;0.20;0.20;;;;;;;;;;6250898;28;20515;-77
2023/12/15 15:29:00;;;;;;;0.30;0.30;;;;;;;;;;6242155;28;20440;-77
2023/12/15 15:32:00;;;;;;;0.20;0.20;;;;;;;;;;6257075;28;20021;-77
2023/12/15 15:35:07;;;;;;;0.20;0.20;;;;;;;;;;6251850;28;20017;-77
2023/12/15 15:38:07;;;;;;;0.20;0.20;;;;;;;;;;6244318;28;20036;-77
2023/12/15 15:41:08;;;;;;;0.20;0.20;;;;;;;;;;6248930;28;20029;-77
2023/12/15 15:44:08;;;;;;;0.20;0.20;;;;;;;;;;6251782;28;20104;-77
2023/12/15 15:47:09;;;;;;;0.20;0.20;;;;;;;;;;6253296;28;20052;-77
2023/12/15 15:50:09;;;;;;;0.20;0.20;;;;;;;;;;6256686;28;20028;-77
2023/12/15 15:53:10;;;;;;;0.20;0.20;;;;;;;;;;6257183;28;20586;-78
2023/12/15 15:56:10;;;;;;;0.20;0.20;;;;;;;;;;6251025;28;20022;-77
2023/12/15 15:59:10;;;;;;;0.20;0.20;;;;;;;;;;6246027;28;20455;-77
2023/12/15 16:02:11;;;;;;;0.20;0.20;;;;;;;;;;6255362;28;20438;-83
2023/12/15 16:05:11;;;;;;;0.20;0.20;;;;;;;;;;6252314;28;20095;-83
2023/12/15 16:08:11;;;;;;;0.20;0.20;;;;;;;;;;6245178;28;20021;-82
2023/12/15 16:11:11;;;;;;;0.20;0.20;;;;;;;;;;6255883;28;20025;-83
2023/12/15 16:14:12;;;;;;;0.20;0.20;;;;;;;;;;6250277;28;20459;-77
2023/12/15 16:17:12;;;;;;;0.30;0.30;;;;;;;;;;6255707;28;20032;-78
2023/12/15 16:20:13;;;;;;;0.20;0.20;;;;;;;;;;6250277;28;20013;-78
2023/12/15 16:23:13;;;;;;;0.20;0.20;;;;;;;;;;6271411;28;20083;-77
2023/12/15 16:26:14;;;;;;;0.30;0.30;;;;;;;;;;6248160;28;20435;-78
2023/12/15 16:29:15;;;;;;;0.30;0.30;;;;;;;;;;6261678;28;20096;-78
2023/12/15 16:32:15;;;;;;;0.30;0.30;;;;;;;;;;6254061;28;20817;-78
2023/12/15 16:35:16;;;;;;;0.20;0.20;;;;;;;;;;6260904;28;20026;-78
2023/12/15 16:38:16;;;;;;;0.30;0.30;;;;;;;;;;6255621;28;20499;-78
2023/12/15 16:41:27;;;;;;;0.20;0.20;;;;;;;;;;6255298;28;20109;-78
2023/12/15 16:44:27;;;;;;;0.20;0.20;;;;;;;;;;6259243;28;20021;-78
2023/12/15 16:47:27;;;;;;;0.30;0.30;;;;;;;;;;6249186;28;20558;-78
2023/12/15 16:50:27;;;;;;;0.30;0.30;;;;;;;;;;6254226;28;20017;-78
2023/12/15 16:53:28;;;;;;;0.30;0.30;;;;;;;;;;6264536;28;20031;-78
2023/12/15 16:56:28;;;;;;;0.20;0.20;;;;;;;;;;6253777;28;20047;-78
2023/12/15 16:59:28;;;;;;;0.30;0.30;;;;;;;;;;6251127;28;20129;-78
2023/12/15 17:02:28;;;;;;;0.30;0.30;;;;;;;;;;6258281;28;20017;-77
2023/12/15 17:05:29;;;;;;;0.20;0.20;;;;;;;;;;6255555;28;20044;-78
2023/12/15 17:08:29;;;;;;;0.30;0.30;;;;;;;;;;6246049;28;20087;-78
2023/12/15 17:11:29;;;;;;;0.30;0.30;;;;;;;;;;6248451;28;20021;-77
2023/12/15 17:14:29;;;;;;;0.30;0.30;;;;;;;;;;6260725;28;20017;-88
2023/12/15 17:17:30;;;;;;;0.20;0.20;;;;;;;;;;6259266;28;20017;-87
2023/12/15 17:20:31;;;;;;;0.30;0.30;;;;;;;;;;6257996;28;20021;-88
2023/12/15 17:23:31;;;;;;;0.20;0.20;;;;;;;;;;6257799;28;20506;-87
2023/12/15 17:26:31;;;;;;;0.30;0.30;;;;;;;;;;6264172;28;20315;-87
2023/12/15 17:29:31;;;;;;;0.30;0.30;;;;;;;;;;6268948;28;20020;-87
2023/12/15 17:32:32;;;;;;;0.30;0.30;;;;;;;;;;6250083;28;20388;-87
2023/12/15 17:35:32;;;;;;;0.30;0.30;;;;;;;;;;6248569;28;20041;-87
2023/12/15 17:38:32;;;;;;;0.23;0.23;;;;;;;;;;6258204;28;20099;-86
2023/12/15 17:41:33;;;;;;;0.20;0.20;;;;;;;;;;6267375;28;20025;-85
2023/12/15 17:44:33;;;;;;;0.30;0.30;;;;;;;;;;6259671;28;20417;-85
2023/12/15 17:47:34;;;;;;;0.30;0.30;;;;;;;;;;6261020;28;20108;-85
2023/12/15 17:50:36;;;;;;;0.23;0.23;;;;;;;;;;6255191;28;20026;-85
2023/12/15 17:53:36;;;;;;;0.30;0.30;;;;;;;;;;6258986;28;20067;-85
2023/12/15 17:56:36;;;;;;;0.20;0.20;;;;;;;;;;6253354;28;20492;-84
2023/12/15 17:59:36;;;;;;;0.30;0.30;;;;;;;;;;6243522;28;20025;-84
2023/12/15 18:02:37;;;;;;;0.30;0.30;;;;;;;;;;6244093;28;20322;-84